Terminal Aerodrome Forecast
Issued by NWS Sioux Falls, SD

Home | Current Version | Previous Version | Graphics & Text | Print | Product List | Glossary On
Versions: 1 2 3 4 5 6 7 8 9 10 11 12 13 14 15 16 17
000
FTUS43 KFSD 151731
TAFHON
TAF
KHON 151731Z 1518/1618 01016G24KT P6SM OVC014
     FM151900 36016G24KT 6SM -SN OVC010
     FM152100 35017G26KT 2SM -SN OVC010
      TEMPO 1521/1523 1 1/2SM -SN
     FM152300 34015G23KT P6SM BKN025
     FM160200 33012G18KT P6SM BKN035
     FM160600 28006KT P6SM SKC
     FM161100 24008KT P6SM SKC=

USA.gov is the U.S. government's official web portal to all federal, state and local government web resources and services.